sensor_id;sensor_type;location;lat;lon;timestamp;temperature;humidity
2907;DHT22;1463;51.070;16.998;2023-12-14T00:00:28;7.60;99.90
2907;DHT22;1463;51.070;16.998;2023-12-14T00:02:56;7.50;99.90
2907;DHT22;1463;51.070;16.998;2023-12-14T00:05:24;7.50;99.90
2907;DHT22;1463;51.070;16.998;2023-12-14T00:07:51;7.50;99.90
2907;DHT22;1463;51.070;16.998;2023-12-14T00:10:18;7.50;99.90
2907;DHT22;1463;51.070;16.998;2023-12-14T00:12:45;7.50;99.90
2907;DHT22;1463;51.070;16.998;2023-12-14T00:15:12;7.50;99.90
2907;DHT22;1463;51.070;16.998;2023-12-14T00:17:39;7.50;99.90
2907;DHT22;1463;51.070;16.998;2023-12-14T00:20:07;7.50;99.90
2907;DHT22;1463;51.070;16.998;2023-12-14T00:22:35;7.50;99.90
2907;DHT22;1463;51.070;16.998;2023-12-14T00:25:03;7.50;99.90
2907;DHT22;1463;51.070;16.998;2023-12-14T00:27:30;7.50;99.90
2907;DHT22;1463;51.070;16.998;2023-12-14T00:29:57;7.40;99.90
2907;DHT22;1463;51.070;16.998;2023-12-14T00:32:24;7.40;99.90
2907;DHT22;1463;51.070;16.998;2023-12-14T00:34:50;7.40;99.90
2907;DHT22;1463;51.070;16.998;2023-12-14T00:37:17;7.40;99.90
2907;DHT22;1463;51.070;16.998;2023-12-14T00:39:45;7.40;99.90
2907;DHT22;1463;51.070;16.998;2023-12-14T00:42:12;7.40;99.90
2907;DHT22;1463;51.070;16.998;2023-12-14T00:44:39;7.40;99.90
2907;DHT22;1463;51.070;16.998;2023-12-14T00:47:06;7.30;99.90
2907;DHT22;1463;51.070;16.998;2023-12-14T00:49:32;7.30;99.90
2907;DHT22;1463;51.070;16.998;2023-12-14T00:51:59;7.40;99.90
2907;DHT22;1463;51.070;16.998;2023-12-14T00:54:26;7.40;99.90
2907;DHT22;1463;51.070;16.998;2023-12-14T00:56:54;7.40;99.90
2907;DHT22;1463;51.070;16.998;2023-12-14T00:59:21;7.40;99.90
2907;DHT22;1463;51.070;16.998;2023-12-14T01:01:47;7.40;99.90
2907;DHT22;1463;51.070;16.998;2023-12-14T01:04:14;7.40;99.90
2907;DHT22;1463;51.070;16.998;2023-12-14T01:06:41;7.40;99.90
2907;DHT22;1463;51.070;16.998;2023-12-14T01:09:08;7.40;99.90
2907;DHT22;1463;51.070;16.998;2023-12-14T01:11:34;7.30;99.90
2907;DHT22;1463;51.070;16.998;2023-12-14T01:14:03;7.30;99.90
2907;DHT22;1463;51.070;16.998;2023-12-14T01:16:30;7.30;99.90
2907;DHT22;1463;51.070;16.998;2023-12-14T01:18:56;7.40;99.90
2907;DHT22;1463;51.070;16.998;2023-12-14T01:21:23;7.30;99.90
2907;DHT22;1463;51.070;16.998;2023-12-14T01:23:50;7.40;99.90
2907;DHT22;1463;51.070;16.998;2023-12-14T01:26:17;7.40;99.90
2907;DHT22;1463;51.070;16.998;2023-12-14T01:28:44;7.40;99.90
2907;DHT22;1463;51.070;16.998;2023-12-14T01:31:12;7.30;99.90
2907;DHT22;1463;51.070;16.998;2023-12-14T01:33:39;7.40;99.90
2907;DHT22;1463;51.070;16.998;2023-12-14T01:36:07;7.30;99.90
2907;DHT22;1463;51.070;16.998;2023-12-14T01:38:33;7.30;99.90
2907;DHT22;1463;51.070;16.998;2023-12-14T01:41:00;7.40;99.90
2907;DHT22;1463;51.070;16.998;2023-12-14T01:43:27;7.40;99.90
2907;DHT22;1463;51.070;16.998;2023-12-14T01:45:54;7.40;99.90
2907;DHT22;1463;51.070;16.998;2023-12-14T01:48:22;7.30;99.90
2907;DHT22;1463;51.070;16.998;2023-12-14T01:50:49;7.30;99.90
2907;DHT22;1463;51.070;16.998;2023-12-14T01:53:15;7.30;99.90
2907;DHT22;1463;51.070;16.998;2023-12-14T01:55:42;7.30;99.90
2907;DHT22;1463;51.070;16.998;2023-12-14T01:58:09;7.40;99.90
2907;DHT22;1463;51.070;16.998;2023-12-14T02:00:40;7.40;99.90
2907;DHT22;1463;51.070;16.998;2023-12-14T02:03:09;7.40;99.90
2907;DHT22;1463;51.070;16.998;2023-12-14T02:05:37;7.40;99.90
2907;DHT22;1463;51.070;16.998;2023-12-14T02:08:04;7.40;99.90
2907;DHT22;1463;51.070;16.998;2023-12-14T02:10:31;7.40;99.90
2907;DHT22;1463;51.070;16.998;2023-12-14T02:12:58;7.40;99.90
2907;DHT22;1463;51.070;16.998;2023-12-14T02:15:24;7.40;99.90
2907;DHT22;1463;51.070;16.998;2023-12-14T02:17:51;7.40;99.90
2907;DHT22;1463;51.070;16.998;2023-12-14T02:20:18;7.40;99.90
2907;DHT22;1463;51.070;16.998;2023-12-14T02:22:50;7.40;99.90
2907;DHT22;1463;51.070;16.998;2023-12-14T02:25:17;7.40;99.90
2907;DHT22;1463;51.070;16.998;2023-12-14T02:27:44;7.30;99.90
2907;DHT22;1463;51.070;16.998;2023-12-14T02:30:12;7.30;99.90
2907;DHT22;1463;51.070;16.998;2023-12-14T02:32:39;7.30;99.90
2907;DHT22;1463;51.070;16.998;2023-12-14T02:35:07;7.30;99.90
2907;DHT22;1463;51.070;16.998;2023-12-14T02:37:34;7.40;99.90
2907;DHT22;1463;51.070;16.998;2023-12-14T02:40:04;7.40;99.90
2907;DHT22;1463;51.070;16.998;2023-12-14T02:42:32;7.40;99.90
2907;DHT22;1463;51.070;16.998;2023-12-14T02:44:59;7.30;99.90
2907;DHT22;1463;51.070;16.998;2023-12-14T02:47:27;7.30;99.90
2907;DHT22;1463;51.070;16.998;2023-12-14T02:49:54;7.30;99.90
2907;DHT22;1463;51.070;16.998;2023-12-14T02:52:21;7.40;99.90
2907;DHT22;1463;51.070;16.998;2023-12-14T02:54:48;7.40;99.90
2907;DHT22;1463;51.070;16.998;2023-12-14T02:57:16;7.40;99.90
2907;DHT22;1463;51.070;16.998;2023-12-14T02:59:43;7.30;99.90
2907;DHT22;1463;51.070;16.998;2023-12-14T03:02:10;7.30;99.90
2907;DHT22;1463;51.070;16.998;2023-12-14T03:04:37;7.30;99.90
2907;DHT22;1463;51.070;16.998;2023-12-14T03:07:04;7.30;99.90
2907;DHT22;1463;51.070;16.998;2023-12-14T03:09:31;7.30;99.90
2907;DHT22;1463;51.070;16.998;2023-12-14T03:11:59;7.30;99.90
2907;DHT22;1463;51.070;16.998;2023-12-14T03:14:32;7.20;99.90
2907;DHT22;1463;51.070;16.998;2023-12-14T03:16:59;7.30;99.90
2907;DHT22;1463;51.070;16.998;2023-12-14T03:19:26;7.20;99.90
2907;DHT22;1463;51.070;16.998;2023-12-14T03:21:53;7.30;99.90
2907;DHT22;1463;51.070;16.998;2023-12-14T03:24:20;7.30;99.90
2907;DHT22;1463;51.070;16.998;2023-12-14T03:26:47;7.30;99.90
2907;DHT22;1463;51.070;16.998;2023-12-14T03:29:14;7.30;99.90
2907;DHT22;1463;51.070;16.998;2023-12-14T03:31:42;7.30;99.90
2907;DHT22;1463;51.070;16.998;2023-12-14T03:34:08;7.30;99.90
2907;DHT22;1463;51.070;16.998;2023-12-14T03:36:35;7.20;99.90
2907;DHT22;1463;51.070;16.998;2023-12-14T03:39:02;7.30;99.90
2907;DHT22;1463;51.070;16.998;2023-12-14T03:41:29;7.30;99.90
2907;DHT22;1463;51.070;16.998;2023-12-14T03:43:55;7.30;99.90
2907;DHT22;1463;51.070;16.998;2023-12-14T03:46:22;7.30;99.90
2907;DHT22;1463;51.070;16.998;2023-12-14T03:48:50;7.20;99.90
2907;DHT22;1463;51.070;16.998;2023-12-14T03:51:18;7.20;99.90
2907;DHT22;1463;51.070;16.998;2023-12-14T03:53:45;7.30;99.90
2907;DHT22;1463;51.070;16.998;2023-12-14T03:56:12;7.20;99.90
2907;DHT22;1463;51.070;16.998;2023-12-14T03:58:39;7.20;99.90
2907;DHT22;1463;51.070;16.998;2023-12-14T04:01:06;7.30;99.90
2907;DHT22;1463;51.070;16.998;2023-12-14T04:03:32;7.30;99.90
2907;DHT22;1463;51.070;16.998;2023-12-14T04:06:00;7.30;99.90
2907;DHT22;1463;51.070;16.998;2023-12-14T04:08:27;7.20;99.90
2907;DHT22;1463;51.070;16.998;2023-12-14T04:10:54;7.20;99.90
2907;DHT22;1463;51.070;16.998;2023-12-14T04:13:21;7.30;99.90
2907;DHT22;1463;51.070;16.998;2023-12-14T04:15:47;7.30;99.90
2907;DHT22;1463;51.070;16.998;2023-12-14T04:18:14;7.20;99.90
2907;DHT22;1463;51.070;16.998;2023-12-14T04:20:41;7.30;99.90
2907;DHT22;1463;51.070;16.998;2023-12-14T04:23:09;7.30;99.90
2907;DHT22;1463;51.070;16.998;2023-12-14T04:25:36;7.30;99.90
2907;DHT22;1463;51.070;16.998;2023-12-14T04:28:03;7.30;99.90
2907;DHT22;1463;51.070;16.998;2023-12-14T04:30:30;7.20;99.90
2907;DHT22;1463;51.070;16.998;2023-12-14T04:32:57;7.20;99.90
2907;DHT22;1463;51.070;16.998;2023-12-14T04:35:23;7.20;99.90
2907;DHT22;1463;51.070;16.998;2023-12-14T04:37:50;7.20;99.90
2907;DHT22;1463;51.070;16.998;2023-12-14T04:40:20;7.30;99.90
2907;DHT22;1463;51.070;16.998;2023-12-14T04:42:46;7.30;99.90
2907;DHT22;1463;51.070;16.998;2023-12-14T04:45:13;7.30;99.90
2907;DHT22;1463;51.070;16.998;2023-12-14T04:47:42;7.30;99.90
2907;DHT22;1463;51.070;16.998;2023-12-14T04:50:09;7.20;99.90
2907;DHT22;1463;51.070;16.998;2023-12-14T04:52:37;7.20;99.90
2907;DHT22;1463;51.070;16.998;2023-12-14T04:55:05;7.30;99.90
2907;DHT22;1463;51.070;16.998;2023-12-14T04:57:33;7.30;99.90
2907;DHT22;1463;51.070;16.998;2023-12-14T05:00:00;7.30;99.90
2907;DHT22;1463;51.070;16.998;2023-12-14T05:02:27;7.30;99.90
2907;DHT22;1463;51.070;16.998;2023-12-14T05:04:54;7.30;99.90
2907;DHT22;1463;51.070;16.998;2023-12-14T05:07:21;7.30;99.90
2907;DHT22;1463;51.070;16.998;2023-12-14T05:09:49;7.20;99.90
2907;DHT22;1463;51.070;16.998;2023-12-14T05:12:16;7.30;99.90
2907;DHT22;1463;51.070;16.998;2023-12-14T05:14:44;7.30;99.90
2907;DHT22;1463;51.070;16.998;2023-12-14T05:17:11;7.30;99.90
2907;DHT22;1463;51.070;16.998;2023-12-14T05:19:37;7.30;99.90
2907;DHT22;1463;51.070;16.998;2023-12-14T05:22:04;7.20;99.90
2907;DHT22;1463;51.070;16.998;2023-12-14T05:24:31;7.30;99.90
2907;DHT22;1463;51.070;16.998;2023-12-14T05:26:58;7.20;99.90
2907;DHT22;1463;51.070;16.998;2023-12-14T05:29:24;7.20;99.90
2907;DHT22;1463;51.070;16.998;2023-12-14T05:31:52;7.20;99.90
2907;DHT22;1463;51.070;16.998;2023-12-14T05:34:19;7.20;99.90
2907;DHT22;1463;51.070;16.998;2023-12-14T05:36:46;7.20;99.90
2907;DHT22;1463;51.070;16.998;2023-12-14T05:39:13;7.30;99.90
2907;DHT22;1463;51.070;16.998;2023-12-14T05:41:40;7.20;99.90
2907;DHT22;1463;51.070;16.998;2023-12-14T05:44:07;7.20;99.90
2907;DHT22;1463;51.070;16.998;2023-12-14T05:46:35;7.20;99.90
2907;DHT22;1463;51.070;16.998;2023-12-14T05:49:03;7.10;99.90
2907;DHT22;1463;51.070;16.998;2023-12-14T05:51:31;7.20;99.90
2907;DHT22;1463;51.070;16.998;2023-12-14T05:53:58;7.20;99.90
2907;DHT22;1463;51.070;16.998;2023-12-14T05:56:25;7.30;99.90
2907;DHT22;1463;51.070;16.998;2023-12-14T05:58:52;7.20;99.90
2907;DHT22;1463;51.070;16.998;2023-12-14T06:01:19;7.20;99.90
2907;DHT22;1463;51.070;16.998;2023-12-14T06:03:46;7.20;99.90
2907;DHT22;1463;51.070;16.998;2023-12-14T06:06:14;7.20;99.90
2907;DHT22;1463;51.070;16.998;2023-12-14T06:08:41;7.20;99.90
2907;DHT22;1463;51.070;16.998;2023-12-14T06:11:09;7.20;99.90
2907;DHT22;1463;51.070;16.998;2023-12-14T06:13:35;7.20;99.90
2907;DHT22;1463;51.070;16.998;2023-12-14T06:16:03;7.20;99.90
2907;DHT22;1463;51.070;16.998;2023-12-14T06:18:30;7.20;99.90
2907;DHT22;1463;51.070;16.998;2023-12-14T06:20:57;7.20;99.90
2907;DHT22;1463;51.070;16.998;2023-12-14T06:23:25;7.20;99.90
2907;DHT22;1463;51.070;16.998;2023-12-14T06:25:52;7.10;99.90
2907;DHT22;1463;51.070;16.998;2023-12-14T06:28:19;7.10;99.90
2907;DHT22;1463;51.070;16.998;2023-12-14T06:30:46;7.10;99.90
2907;DHT22;1463;51.070;16.998;2023-12-14T06:33:13;7.20;99.90
2907;DHT22;1463;51.070;16.998;2023-12-14T06:35:40;7.20;99.90
2907;DHT22;1463;51.070;16.998;2023-12-14T06:38:07;7.20;99.90
2907;DHT22;1463;51.070;16.998;2023-12-14T06:40:35;7.10;99.90
2907;DHT22;1463;51.070;16.998;2023-12-14T06:43:04;7.20;99.90
2907;DHT22;1463;51.070;16.998;2023-12-14T06:45:30;7.10;99.90
2907;DHT22;1463;51.070;16.998;2023-12-14T06:47:57;7.10;99.90
2907;DHT22;1463;51.070;16.998;2023-12-14T06:50:24;7.10;99.90
2907;DHT22;1463;51.070;16.998;2023-12-14T06:52:51;7.10;99.90
2907;DHT22;1463;51.070;16.998;2023-12-14T06:55:18;7.10;99.90
2907;DHT22;1463;51.070;16.998;2023-12-14T06:57:46;7.20;99.90
2907;DHT22;1463;51.070;16.998;2023-12-14T07:00:14;7.10;99.90
2907;DHT22;1463;51.070;16.998;2023-12-14T07:02:42;7.10;99.90
2907;DHT22;1463;51.070;16.998;2023-12-14T07:05:09;7.20;99.90
2907;DHT22;1463;51.070;16.998;2023-12-14T07:07:36;7.10;99.90
2907;DHT22;1463;51.070;16.998;2023-12-14T07:10:04;7.20;99.90
2907;DHT22;1463;51.070;16.998;2023-12-14T07:12:31;7.20;99.90
2907;DHT22;1463;51.070;16.998;2023-12-14T07:14:59;7.20;99.90
2907;DHT22;1463;51.070;16.998;2023-12-14T07:17:26;7.20;99.90
2907;DHT22;1463;51.070;16.998;2023-12-14T07:19:52;7.10;99.90
2907;DHT22;1463;51.070;16.998;2023-12-14T07:22:20;7.10;99.90
2907;DHT22;1463;51.070;16.998;2023-12-14T07:24:46;7.10;99.90
2907;DHT22;1463;51.070;16.998;2023-12-14T07:27:13;7.20;99.90
2907;DHT22;1463;51.070;16.998;2023-12-14T07:29:40;7.20;99.90
2907;DHT22;1463;51.070;16.998;2023-12-14T07:32:08;7.10;99.90
2907;DHT22;1463;51.070;16.998;2023-12-14T07:34:35;7.20;99.90
2907;DHT22;1463;51.070;16.998;2023-12-14T07:37:01;7.20;99.90
2907;DHT22;1463;51.070;16.998;2023-12-14T07:39:28;7.20;99.90
2907;DHT22;1463;51.070;16.998;2023-12-14T07:41:55;7.10;99.90
2907;DHT22;1463;51.070;16.998;2023-12-14T07:44:22;7.20;99.90
2907;DHT22;1463;51.070;16.998;2023-12-14T07:46:50;7.30;99.90
2907;DHT22;1463;51.070;16.998;2023-12-14T07:49:18;7.20;99.90
2907;DHT22;1463;51.070;16.998;2023-12-14T07:51:48;7.30;99.90
2907;DHT22;1463;51.070;16.998;2023-12-14T07:54:14;7.30;99.90
2907;DHT22;1463;51.070;16.998;2023-12-14T07:56:41;7.30;99.90
2907;DHT22;1463;51.070;16.998;2023-12-14T07:59:08;7.30;99.90
2907;DHT22;1463;51.070;16.998;2023-12-14T08:01:35;7.30;99.90
2907;DHT22;1463;51.070;16.998;2023-12-14T08:04:02;7.20;99.90
2907;DHT22;1463;51.070;16.998;2023-12-14T08:06:31;7.20;99.90
2907;DHT22;1463;51.070;16.998;2023-12-14T08:08:58;7.30;99.90
2907;DHT22;1463;51.070;16.998;2023-12-14T08:11:25;7.20;99.90
2907;DHT22;1463;51.070;16.998;2023-12-14T08:13:51;7.20;99.90
2907;DHT22;1463;51.070;16.998;2023-12-14T08:16:19;7.20;99.90
2907;DHT22;1463;51.070;16.998;2023-12-14T08:18:45;7.20;99.90
2907;DHT22;1463;51.070;16.998;2023-12-14T08:21:14;7.20;99.90
2907;DHT22;1463;51.070;16.998;2023-12-14T08:23:42;7.30;99.90
2907;DHT22;1463;51.070;16.998;2023-12-14T08:26:09;7.30;99.90
2907;DHT22;1463;51.070;16.998;2023-12-14T08:28:38;7.20;99.90
2907;DHT22;1463;51.070;16.998;2023-12-14T08:31:05;7.20;99.90
2907;DHT22;1463;51.070;16.998;2023-12-14T08:33:32;7.20;99.90
2907;DHT22;1463;51.070;16.998;2023-12-14T08:35:58;7.20;99.90
2907;DHT22;1463;51.070;16.998;2023-12-14T08:38:25;7.20;99.90
2907;DHT22;1463;51.070;16.998;2023-12-14T08:40:53;7.20;99.90
2907;DHT22;1463;51.070;16.998;2023-12-14T08:43:20;7.20;99.90
2907;DHT22;1463;51.070;16.998;2023-12-14T08:45:47;7.30;99.90
2907;DHT22;1463;51.070;16.998;2023-12-14T08:48:14;7.20;99.90
2907;DHT22;1463;51.070;16.998;2023-12-14T08:50:40;7.20;99.90
2907;DHT22;1463;51.070;16.998;2023-12-14T08:53:07;7.20;99.90
2907;DHT22;1463;51.070;16.998;2023-12-14T08:55:34;7.10;99.90
2907;DHT22;1463;51.070;16.998;2023-12-14T08:58:02;7.10;99.90
2907;DHT22;1463;51.070;16.998;2023-12-14T09:00:29;7.10;99.90
2907;DHT22;1463;51.070;16.998;2023-12-14T09:02:56;7.10;99.90
2907;DHT22;1463;51.070;16.998;2023-12-14T09:05:24;7.10;99.90
2907;DHT22;1463;51.070;16.998;2023-12-14T09:07:52;7.10;99.90
2907;DHT22;1463;51.070;16.998;2023-12-14T09:10:21;7.20;99.90
2907;DHT22;1463;51.070;16.998;2023-12-14T09:12:48;7.20;99.90
2907;DHT22;1463;51.070;16.998;2023-12-14T09:15:16;7.20;99.90
2907;DHT22;1463;51.070;16.998;2023-12-14T09:17:43;7.10;99.90
2907;DHT22;1463;51.070;16.998;2023-12-14T09:20:10;7.10;99.90
2907;DHT22;1463;51.070;16.998;2023-12-14T09:22:37;7.10;99.90
2907;DHT22;1463;51.070;16.998;2023-12-14T09:25:05;7.20;99.90
2907;DHT22;1463;51.070;16.998;2023-12-14T09:27:34;7.10;99.90
2907;DHT22;1463;51.070;16.998;2023-12-14T09:30:01;7.10;99.90
2907;DHT22;1463;51.070;16.998;2023-12-14T09:32:29;7.10;99.90
2907;DHT22;1463;51.070;16.998;2023-12-14T09:34:56;7.10;99.90
2907;DHT22;1463;51.070;16.998;2023-12-14T09:37:23;7.10;99.90
2907;DHT22;1463;51.070;16.998;2023-12-14T09:39:50;7.10;99.90
2907;DHT22;1463;51.070;16.998;2023-12-14T09:42:18;7.10;99.90
2907;DHT22;1463;51.070;16.998;2023-12-14T09:44:47;7.10;99.90
2907;DHT22;1463;51.070;16.998;2023-12-14T09:47:14;7.20;99.90
2907;DHT22;1463;51.070;16.998;2023-12-14T09:49:42;7.10;99.90
2907;DHT22;1463;51.070;16.998;2023-12-14T09:52:10;7.20;99.90
2907;DHT22;1463;51.070;16.998;2023-12-14T09:54:36;7.20;99.90
2907;DHT22;1463;51.070;16.998;2023-12-14T09:57:03;7.20;99.90
2907;DHT22;1463;51.070;16.998;2023-12-14T09:59:30;7.20;99.90
2907;DHT22;1463;51.070;16.998;2023-12-14T10:02:09;7.20;99.90
2907;DHT22;1463;51.070;16.998;2023-12-14T10:04:36;7.20;99.90
2907;DHT22;1463;51.070;16.998;2023-12-14T10:07:04;7.20;99.90
2907;DHT22;1463;51.070;16.998;2023-12-14T10:09:33;7.20;99.90
2907;DHT22;1463;51.070;16.998;2023-12-14T10:12:03;7.30;99.90
2907;DHT22;1463;51.070;16.998;2023-12-14T10:14:31;7.30;99.90
2907;DHT22;1463;51.070;16.998;2023-12-14T10:16:58;7.20;99.90
2907;DHT22;1463;51.070;16.998;2023-12-14T10:19:26;7.20;99.90
2907;DHT22;1463;51.070;16.998;2023-12-14T10:21:53;7.20;99.90
2907;DHT22;1463;51.070;16.998;2023-12-14T10:24:21;7.20;99.90
2907;DHT22;1463;51.070;16.998;2023-12-14T10:26:50;7.20;99.90
2907;DHT22;1463;51.070;16.998;2023-12-14T10:29:17;7.20;99.90
2907;DHT22;1463;51.070;16.998;2023-12-14T10:31:44;7.20;99.90
2907;DHT22;1463;51.070;16.998;2023-12-14T10:34:11;7.10;99.90
2907;DHT22;1463;51.070;16.998;2023-12-14T10:36:38;7.10;99.90
2907;DHT22;1463;51.070;16.998;2023-12-14T10:39:06;7.20;99.90
2907;DHT22;1463;51.070;16.998;2023-12-14T10:41:36;7.10;99.90
2907;DHT22;1463;51.070;16.998;2023-12-14T10:44:03;7.20;99.90
2907;DHT22;1463;51.070;16.998;2023-12-14T10:46:31;7.20;99.90
2907;DHT22;1463;51.070;16.998;2023-12-14T10:49:01;7.20;99.90
2907;DHT22;1463;51.070;16.998;2023-12-14T10:51:28;7.20;99.90
2907;DHT22;1463;51.070;16.998;2023-12-14T10:53:55;7.20;99.90
2907;DHT22;1463;51.070;16.998;2023-12-14T10:56:23;7.20;99.90
2907;DHT22;1463;51.070;16.998;2023-12-14T10:58:53;7.20;99.90
2907;DHT22;1463;51.070;16.998;2023-12-14T11:01:22;7.20;99.90
2907;DHT22;1463;51.070;16.998;2023-12-14T11:03:51;7.30;99.90
2907;DHT22;1463;51.070;16.998;2023-12-14T11:06:25;7.20;99.90
2907;DHT22;1463;51.070;16.998;2023-12-14T11:08:56;7.20;99.90
2907;DHT22;1463;51.070;16.998;2023-12-14T11:11:28;7.30;99.90
2907;DHT22;1463;51.070;16.998;2023-12-14T11:13:57;7.20;99.90
2907;DHT22;1463;51.070;16.998;2023-12-14T11:16:26;7.20;99.90
2907;DHT22;1463;51.070;16.998;2023-12-14T11:22:10;7.00;99.90
2907;DHT22;1463;51.070;16.998;2023-12-14T11:24:41;7.10;99.90
2907;DHT22;1463;51.070;16.998;2023-12-14T11:27:09;7.10;99.90
2907;DHT22;1463;51.070;16.998;2023-12-14T11:29:37;7.20;99.90
2907;DHT22;1463;51.070;16.998;2023-12-14T11:32:06;7.10;99.90
2907;DHT22;1463;51.070;16.998;2023-12-14T11:34:33;7.10;99.90
2907;DHT22;1463;51.070;16.998;2023-12-14T11:37:00;7.10;99.90
2907;DHT22;1463;51.070;16.998;2023-12-14T11:39:30;7.10;99.90
2907;DHT22;1463;51.070;16.998;2023-12-14T11:42:00;7.00;99.90
2907;DHT22;1463;51.070;16.998;2023-12-14T11:44:27;7.00;99.90
2907;DHT22;1463;51.070;16.998;2023-12-14T11:46:56;7.10;99.90
2907;DHT22;1463;51.070;16.998;2023-12-14T11:49:24;7.10;99.90
2907;DHT22;1463;51.070;16.998;2023-12-14T11:51:52;7.10;99.90
2907;DHT22;1463;51.070;16.998;2023-12-14T11:54:19;7.10;99.90
2907;DHT22;1463;51.070;16.998;2023-12-14T11:56:46;7.10;99.90
2907;DHT22;1463;51.070;16.998;2023-12-14T12:02:51;7.10;99.90
2907;DHT22;1463;51.070;16.998;2023-12-14T12:05:17;7.10;99.90
2907;DHT22;1463;51.070;16.998;2023-12-14T12:07:45;7.10;99.90
2907;DHT22;1463;51.070;16.998;2023-12-14T12:10:12;7.10;99.90
2907;DHT22;1463;51.070;16.998;2023-12-14T12:12:38;7.00;99.90
2907;DHT22;1463;51.070;16.998;2023-12-14T12:15:07;7.00;99.90
2907;DHT22;1463;51.070;16.998;2023-12-14T12:17:34;7.10;99.90
2907;DHT22;1463;51.070;16.998;2023-12-14T12:20:05;6.90;99.90
2907;DHT22;1463;51.070;16.998;2023-12-14T12:22:32;7.00;99.90
2907;DHT22;1463;51.070;16.998;2023-12-14T12:24:59;7.00;99.90
2907;DHT22;1463;51.070;16.998;2023-12-14T12:27:27;7.00;99.90
2907;DHT22;1463;51.070;16.998;2023-12-14T12:29:54;7.00;99.90
2907;DHT22;1463;51.070;16.998;2023-12-14T12:32:21;7.00;99.90
2907;DHT22;1463;51.070;16.998;2023-12-14T12:34:47;7.00;99.90
2907;DHT22;1463;51.070;16.998;2023-12-14T12:37:15;7.00;99.90
2907;DHT22;1463;51.070;16.998;2023-12-14T12:39:42;7.00;99.90
2907;DHT22;1463;51.070;16.998;2023-12-14T12:42:09;6.90;99.90
2907;DHT22;1463;51.070;16.998;2023-12-14T12:44:36;6.90;99.90
2907;DHT22;1463;51.070;16.998;2023-12-14T12:47:03;6.90;99.90
2907;DHT22;1463;51.070;16.998;2023-12-14T12:49:30;7.00;99.90
2907;DHT22;1463;51.070;16.998;2023-12-14T12:51:57;6.90;99.90
2907;DHT22;1463;51.070;16.998;2023-12-14T12:54:25;6.80;99.90
2907;DHT22;1463;51.070;16.998;2023-12-14T12:56:52;6.90;99.90
2907;DHT22;1463;51.070;16.998;2023-12-14T12:59:19;6.80;99.90
2907;DHT22;1463;51.070;16.998;2023-12-14T13:01:46;6.80;99.90
2907;DHT22;1463;51.070;16.998;2023-12-14T13:04:18;6.80;99.90
2907;DHT22;1463;51.070;16.998;2023-12-14T13:06:46;6.80;99.90
2907;DHT22;1463;51.070;16.998;2023-12-14T13:09:14;6.70;99.90
2907;DHT22;1463;51.070;16.998;2023-12-14T13:11:43;6.80;99.90
2907;DHT22;1463;51.070;16.998;2023-12-14T13:14:10;6.80;99.90
2907;DHT22;1463;51.070;16.998;2023-12-14T13:16:37;6.70;99.90
2907;DHT22;1463;51.070;16.998;2023-12-14T13:19:04;6.70;99.90
2907;DHT22;1463;51.070;16.998;2023-12-14T13:21:32;6.80;99.90
2907;DHT22;1463;51.070;16.998;2023-12-14T13:24:00;6.70;99.90
2907;DHT22;1463;51.070;16.998;2023-12-14T13:26:27;6.60;99.90
2907;DHT22;1463;51.070;16.998;2023-12-14T13:28:55;6.60;99.90
2907;DHT22;1463;51.070;16.998;2023-12-14T13:31:22;6.70;99.90
2907;DHT22;1463;51.070;16.998;2023-12-14T13:33:49;6.70;99.90
2907;DHT22;1463;51.070;16.998;2023-12-14T13:36:16;6.70;99.90
2907;DHT22;1463;51.070;16.998;2023-12-14T13:38:44;6.70;99.90
2907;DHT22;1463;51.070;16.998;2023-12-14T13:41:12;6.60;99.90
2907;DHT22;1463;51.070;16.998;2023-12-14T13:43:39;6.60;99.90
2907;DHT22;1463;51.070;16.998;2023-12-14T13:46:07;6.50;99.90
2907;DHT22;1463;51.070;16.998;2023-12-14T13:48:34;6.60;99.90
2907;DHT22;1463;51.070;16.998;2023-12-14T13:51:01;6.60;99.90
2907;DHT22;1463;51.070;16.998;2023-12-14T13:53:27;6.60;99.90
2907;DHT22;1463;51.070;16.998;2023-12-14T13:55:54;6.60;99.90
2907;DHT22;1463;51.070;16.998;2023-12-14T13:58:21;6.60;99.90
2907;DHT22;1463;51.070;16.998;2023-12-14T14:00:48;6.60;99.90
2907;DHT22;1463;51.070;16.998;2023-12-14T14:03:16;6.70;99.90
2907;DHT22;1463;51.070;16.998;2023-12-14T14:05:43;6.60;99.90
2907;DHT22;1463;51.070;16.998;2023-12-14T14:08:10;6.60;99.90
2907;DHT22;1463;51.070;16.998;2023-12-14T14:10:37;6.60;99.90
2907;DHT22;1463;51.070;16.998;2023-12-14T14:13:04;6.50;99.90
2907;DHT22;1463;51.070;16.998;2023-12-14T14:15:30;6.50;99.90
2907;DHT22;1463;51.070;16.998;2023-12-14T14:17:57;6.60;99.90
2907;DHT22;1463;51.070;16.998;2023-12-14T14:20:26;6.60;99.90
2907;DHT22;1463;51.070;16.998;2023-12-14T14:22:53;6.70;99.90
2907;DHT22;1463;51.070;16.998;2023-12-14T14:25:20;6.60;99.90
2907;DHT22;1463;51.070;16.998;2023-12-14T14:27:46;6.50;99.90
2907;DHT22;1463;51.070;16.998;2023-12-14T14:30:14;6.50;99.90
2907;DHT22;1463;51.070;16.998;2023-12-14T14:32:41;6.40;99.90
2907;DHT22;1463;51.070;16.998;2023-12-14T14:35:08;6.50;99.90
2907;DHT22;1463;51.070;16.998;2023-12-14T14:37:36;6.50;99.90
2907;DHT22;1463;51.070;16.998;2023-12-14T14:40:07;6.50;99.90
2907;DHT22;1463;51.070;16.998;2023-12-14T14:42:34;6.60;99.90
2907;DHT22;1463;51.070;16.998;2023-12-14T14:45:00;6.50;99.90
2907;DHT22;1463;51.070;16.998;2023-12-14T14:47:27;6.50;99.90
2907;DHT22;1463;51.070;16.998;2023-12-14T14:49:54;6.50;99.90
2907;DHT22;1463;51.070;16.998;2023-12-14T14:52:28;6.40;99.90
2907;DHT22;1463;51.070;16.998;2023-12-14T14:54:56;6.40;99.90
2907;DHT22;1463;51.070;16.998;2023-12-14T14:57:23;6.40;99.90
2907;DHT22;1463;51.070;16.998;2023-12-14T14:59:50;6.40;99.90
2907;DHT22;1463;51.070;16.998;2023-12-14T15:02:17;6.50;99.90
2907;DHT22;1463;51.070;16.998;2023-12-14T15:04:45;6.40;99.90
2907;DHT22;1463;51.070;16.998;2023-12-14T15:07:12;6.50;99.90
2907;DHT22;1463;51.070;16.998;2023-12-14T15:09:39;6.30;99.90
2907;DHT22;1463;51.070;16.998;2023-12-14T15:12:07;6.20;99.90
2907;DHT22;1463;51.070;16.998;2023-12-14T15:14:34;6.30;99.90
2907;DHT22;1463;51.070;16.998;2023-12-14T15:17:01;6.30;99.90
2907;DHT22;1463;51.070;16.998;2023-12-14T15:19:28;6.20;99.90
2907;DHT22;1463;51.070;16.998;2023-12-14T15:21:54;6.20;99.90
2907;DHT22;1463;51.070;16.998;2023-12-14T15:24:21;6.30;99.90
2907;DHT22;1463;51.070;16.998;2023-12-14T15:26:48;6.40;99.90
2907;DHT22;1463;51.070;16.998;2023-12-14T15:29:16;6.40;99.90
2907;DHT22;1463;51.070;16.998;2023-12-14T15:31:43;6.40;99.90
2907;DHT22;1463;51.070;16.998;2023-12-14T15:34:10;6.30;99.90
2907;DHT22;1463;51.070;16.998;2023-12-14T15:36:37;6.40;99.90
2907;DHT22;1463;51.070;16.998;2023-12-14T15:39:03;6.30;99.90
2907;DHT22;1463;51.070;16.998;2023-12-14T15:41:30;6.20;99.90
2907;DHT22;1463;51.070;16.998;2023-12-14T15:43:57;6.10;99.90
2907;DHT22;1463;51.070;16.998;2023-12-14T15:46:25;6.20;99.90
2907;DHT22;1463;51.070;16.998;2023-12-14T15:48:52;6.30;99.90
2907;DHT22;1463;51.070;16.998;2023-12-14T15:51:19;6.40;99.90
2907;DHT22;1463;51.070;16.998;2023-12-14T15:53:46;6.30;99.90
2907;DHT22;1463;51.070;16.998;2023-12-14T15:56:12;6.30;99.90
2907;DHT22;1463;51.070;16.998;2023-12-14T15:58:40;6.20;99.90
2907;DHT22;1463;51.070;16.998;2023-12-14T16:01:06;6.40;99.90
2907;DHT22;1463;51.070;16.998;2023-12-14T16:03:35;6.30;99.90
2907;DHT22;1463;51.070;16.998;2023-12-14T16:06:02;6.30;99.90
2907;DHT22;1463;51.070;16.998;2023-12-14T16:08:29;6.30;99.90